Time;durP1;ratioP1;P1;durP2;ratioP2;P2;SDS_P1;SDS_P2;PMS_P1;PMS_P2;Temp;Humidity;BMP_temperature;BMP_pressure;BME280_temperature;BME280_humidity;BME280_pressure;Samples;Min_cycle;Max_cycle;Signal;HPM_P1;HPM_P2
2024/03/28 00:00:06;;;;;;;3.92;3.53;;;;;;;;;;476759;28;1151;-80
2024/03/28 00:00:26;;;;;;;5.00;3.83;;;;;;;;;;481790;28;1170;-80
2024/03/28 00:00:44;;;;;;;4.95;3.97;;;;;;;;;;478174;28;1256;-80
2024/03/28 00:01:09;;;;;;;4.30;3.90;;;;;;;;;;478784;28;1942;-79
2024/03/28 00:01:31;;;;;;;4.50;4.00;;;;;;;;;;479929;28;1232;-80
2024/03/28 00:01:49;;;;;;;4.75;3.95;;;;;;;;;;477541;28;1206;-79
2024/03/28 00:02:08;;;;;;;4.30;3.90;;;;;;;;;;476016;29;1271;-80
2024/03/28 00:02:32;;;;;;;4.20;3.80;;;;;;;;;;475543;29;1459;-79
2024/03/28 00:02:55;;;;;;;4.20;3.80;;;;;;;;;;474538;29;1263;-81
2024/03/28 00:03:16;;;;;;;4.13;3.72;;;;;;;;;;474564;29;1254;-80
2024/03/28 00:03:41;;;;;;;4.15;3.75;;;;;;;;;;479710;29;1209;-80
2024/03/28 00:04:23;;;;;;;4.65;4.00;;;;;;;;;;479794;28;1306;-80
2024/03/28 00:04:40;;;;;;;4.90;4.10;;;;;;;;;;481485;28;1210;-79
2024/03/28 00:05:03;;;;;;;4.60;4.13;;;;;;;;;;479522;28;1392;-79
2024/03/28 00:05:21;;;;;;;4.13;3.73;;;;;;;;;;482856;28;1222;-80
2024/03/28 00:05:43;;;;;;;5.28;4.00;;;;;;;;;;479854;28;1231;-80
2024/03/28 00:06:03;;;;;;;4.75;4.10;;;;;;;;;;478587;28;1353;-80
2024/03/28 00:06:26;;;;;;;5.43;4.07;;;;;;;;;;477981;28;1243;-80
2024/03/28 00:06:51;;;;;;;5.30;4.00;;;;;;;;;;476467;29;1349;-82
2024/03/28 00:07:14;;;;;;;4.55;4.07;;;;;;;;;;476091;29;1283;-79
2024/03/28 00:07:31;;;;;;;5.10;4.20;;;;;;;;;;476719;29;1297;-80
2024/03/28 00:07:56;;;;;;;5.00;4.30;;;;;;;;;;475245;28;1280;-80
2024/03/28 00:08:18;;;;;;;4.80;4.13;;;;;;;;;;477081;28;1231;-80
2024/03/28 00:08:36;;;;;;;5.30;4.30;;;;;;;;;;477072;28;1072;-80
2024/03/28 00:08:58;;;;;;;5.57;4.30;;;;;;;;;;479760;28;1356;-79
2024/03/28 00:09:18;;;;;;;4.40;4.00;;;;;;;;;;481022;28;1125;-79
2024/03/28 00:09:42;;;;;;;4.78;4.10;;;;;;;;;;479835;28;1147;-80
2024/03/28 00:10:00;;;;;;;5.15;3.97;;;;;;;;;;478919;28;1110;-80
2024/03/28 00:10:19;;;;;;;4.30;3.90;;;;;;;;;;479407;28;1301;-80
2024/03/28 00:10:50;;;;;;;4.30;3.75;;;;;;;;;;478051;28;1040;-80
2024/03/28 00:11:15;;;;;;;5.78;4.10;;;;;;;;;;477213;28;1398;-80
2024/03/28 00:11:38;;;;;;;4.30;3.90;;;;;;;;;;478941;28;1179;-82
2024/03/28 00:12:04;;;;;;;4.20;3.80;;;;;;;;;;480041;28;1286;-82
2024/03/28 00:12:29;;;;;;;5.15;4.05;;;;;;;;;;480955;28;1117;-82
2024/03/28 00:13:03;;;;;;;5.88;4.18;;;;;;;;;;479995;28;1201;-79
2024/03/28 00:13:20;;;;;;;4.43;3.95;;;;;;;;;;481609;28;1576;-80
2024/03/28 00:13:43;;;;;;;5.07;4.07;;;;;;;;;;481200;28;1017;-80
2024/03/28 00:14:01;;;;;;;4.40;3.95;;;;;;;;;;482052;28;1239;-79
2024/03/28 00:14:28;;;;;;;4.93;4.05;;;;;;;;;;482831;28;1088;-80
2024/03/28 00:14:47;;;;;;;5.07;4.40;;;;;;;;;;483856;28;1446;-80
2024/03/28 00:15:05;;;;;;;4.50;4.00;;;;;;;;;;479102;28;1254;-80
2024/03/28 00:15:32;;;;;;;4.25;3.85;;;;;;;;;;480751;28;1055;-80
2024/03/28 00:16:02;;;;;;;5.10;4.40;;;;;;;;;;480965;28;950;-80
2024/03/28 00:16:22;;;;;;;5.07;4.28;;;;;;;;;;483426;28;1094;-82
2024/03/28 00:16:43;;;;;;;4.72;4.28;;;;;;;;;;481678;28;1340;-80
2024/03/28 00:17:06;;;;;;;4.57;4.13;;;;;;;;;;481872;28;1090;-80
2024/03/28 00:17:29;;;;;;;4.80;4.30;;;;;;;;;;482251;28;1098;-80
2024/03/28 00:18:01;;;;;;;4.72;4.30;;;;;;;;;;481122;28;1323;-80
2024/03/28 00:18:20;;;;;;;5.00;4.40;;;;;;;;;;481396;28;970;-80
2024/03/28 00:18:38;;;;;;;4.95;4.35;;;;;;;;;;484330;28;1223;-80
2024/03/28 00:19:00;;;;;;;5.78;4.47;;;;;;;;;;483045;28;1438;-80
2024/03/28 00:19:22;;;;;;;5.28;4.60;;;;;;;;;;482522;28;1179;-80
2024/03/28 00:19:47;;;;;;;5.03;4.50;;;;;;;;;;481213;28;1354;-80
2024/03/28 00:20:19;;;;;;;4.93;4.13;;;;;;;;;;480595;28;1039;-80
2024/03/28 00:20:40;;;;;;;4.60;4.03;;;;;;;;;;482668;28;1020;-79
2024/03/28 00:21:06;;;;;;;4.70;4.20;;;;;;;;;;482634;28;2009;-80
2024/03/28 00:21:27;;;;;;;4.90;4.40;;;;;;;;;;480633;28;1649;-80
2024/03/28 00:21:48;;;;;;;4.90;4.22;;;;;;;;;;480563;28;1258;-80
2024/03/28 00:22:15;;;;;;;4.88;4.38;;;;;;;;;;481002;28;1090;-80
2024/03/28 00:22:32;;;;;;;4.80;4.30;;;;;;;;;;480781;28;1230;-79
2024/03/28 00:23:02;;;;;;;5.00;4.43;;;;;;;;;;480575;28;1301;-80
2024/03/28 00:23:25;;;;;;;6.45;4.10;;;;;;;;;;480588;28;993;-79
2024/03/28 00:23:48;;;;;;;4.85;4.35;;;;;;;;;;481830;28;1390;-80
2024/03/28 00:24:12;;;;;;;4.90;4.20;;;;;;;;;;479507;28;1421;-80
2024/03/28 00:24:39;;;;;;;4.60;4.20;;;;;;;;;;481536;28;1270;-80
2024/03/28 00:24:58;;;;;;;5.50;4.30;;;;;;;;;;482013;28;1437;-80
2024/03/28 00:25:21;;;;;;;5.05;4.22;;;;;;;;;;481149;28;1424;-80
2024/03/28 00:25:51;;;;;;;4.93;4.22;;;;;;;;;;479516;28;1333;-80
2024/03/28 00:26:16;;;;;;;4.95;4.03;;;;;;;;;;480920;28;1644;-80
2024/03/28 00:26:34;;;;;;;5.55;4.43;;;;;;;;;;482015;28;1081;-80
2024/03/28 00:26:53;;;;;;;5.07;4.40;;;;;;;;;;482747;28;1113;-79
2024/03/28 00:27:13;;;;;;;4.88;4.38;;;;;;;;;;479775;28;1864;-80
2024/03/28 00:27:30;;;;;;;4.80;4.30;;;;;;;;;;478498;28;1226;-82
2024/03/28 00:27:49;;;;;;;4.82;4.32;;;;;;;;;;478837;28;1275;-82
2024/03/28 00:28:11;;;;;;;4.72;4.30;;;;;;;;;;480470;28;1279;-82
2024/03/28 00:28:30;;;;;;;4.60;4.20;;;;;;;;;;479051;28;1733;-80
2024/03/28 00:28:49;;;;;;;4.60;4.20;;;;;;;;;;478728;28;1317;-80
2024/03/28 00:29:08;;;;;;;4.80;4.30;;;;;;;;;;478169;28;1205;-80
2024/03/28 00:29:27;;;;;;;4.40;4.00;;;;;;;;;;478072;28;1149;-80
2024/03/28 00:29:48;;;;;;;4.43;4.03;;;;;;;;;;478064;28;1758;-80
2024/03/28 00:30:08;;;;;;;4.60;4.10;;;;;;;;;;477918;28;1267;-80
2024/03/28 00:30:26;;;;;;;4.68;4.28;;;;;;;;;;479101;28;1220;-80
2024/03/28 00:30:46;;;;;;;5.07;4.57;;;;;;;;;;480666;28;946;-79
2024/03/28 00:31:09;;;;;;;5.00;4.50;;;;;;;;;;478082;28;1234;-80
2024/03/28 00:31:27;;;;;;;4.43;4.03;;;;;;;;;;476009;28;1433;-80
2024/03/28 00:31:45;;;;;;;4.50;4.10;;;;;;;;;;474090;28;1302;-80
2024/03/28 00:32:04;;;;;;;4.70;4.30;;;;;;;;;;477676;28;1274;-80
2024/03/28 00:32:22;;;;;;;4.65;4.15;;;;;;;;;;476778;28;1557;-80
2024/03/28 00:32:39;;;;;;;5.03;4.53;;;;;;;;;;476609;29;1056;-79
2024/03/28 00:32:57;;;;;;;5.60;4.70;;;;;;;;;;475336;29;1214;-79
2024/03/28 00:33:15;;;;;;;6.43;4.53;;;;;;;;;;475348;29;1095;-79
2024/03/28 00:33:32;;;;;;;5.60;4.53;;;;;;;;;;475849;29;1316;-80
2024/03/28 00:33:52;;;;;;;4.88;4.38;;;;;;;;;;474205;29;1402;-80
2024/03/28 00:34:11;;;;;;;4.78;4.13;;;;;;;;;;473959;29;1242;-79
2024/03/28 00:34:32;;;;;;;4.95;4.35;;;;;;;;;;477056;28;1350;-80
2024/03/28 00:34:52;;;;;;;5.10;4.60;;;;;;;;;;476829;29;982;-80
2024/03/28 00:35:12;;;;;;;5.10;4.60;;;;;;;;;;477548;28;1783;-80
2024/03/28 00:35:32;;;;;;;5.25;4.50;;;;;;;;;;479303;28;1408;-80
2024/03/28 00:35:52;;;;;;;4.90;4.22;;;;;;;;;;482524;28;1243;-79
2024/03/28 00:36:11;;;;;;;4.88;4.43;;;;;;;;;;478533;28;988;-79
2024/03/28 00:36:33;;;;;;;5.13;4.63;;;;;;;;;;477215;28;1260;-80
2024/03/28 00:36:52;;;;;;;5.05;4.55;;;;;;;;;;474938;29;1230;-80
2024/03/28 00:37:12;;;;;;;4.70;4.20;;;;;;;;;;477676;29;1281;-80
2024/03/28 00:37:33;;;;;;;4.50;4.10;;;;;;;;;;473206;29;1604;-81
2024/03/28 00:37:51;;;;;;;4.70;4.20;;;;;;;;;;476150;28;1294;-80
2024/03/28 00:38:10;;;;;;;5.30;4.55;;;;;;;;;;476074;29;1354;-80
2024/03/28 00:38:30;;;;;;;5.10;4.60;;;;;;;;;;476365;29;1387;-80
2024/03/28 00:38:48;;;;;;;5.20;4.70;;;;;;;;;;473598;29;1219;-80
2024/03/28 00:39:10;;;;;;;5.10;4.60;;;;;;;;;;474008;29;1476;-79
2024/03/28 00:39:31;;;;;;;4.93;4.40;;;;;;;;;;477050;29;1451;-79
2024/03/28 00:39:50;;;;;;;5.35;4.75;;;;;;;;;;476876;28;1325;-80
2024/03/28 00:40:12;;;;;;;5.25;4.75;;;;;;;;;;476043;29;1337;-80
2024/03/28 00:40:30;;;;;;;5.25;4.55;;;;;;;;;;474004;29;1313;-80
2024/03/28 00:40:54;;;;;;;5.57;4.95;;;;;;;;;;473844;29;1335;-80
2024/03/28 00:41:12;;;;;;;5.22;4.72;;;;;;;;;;475057;29;1250;-80
2024/03/28 00:41:31;;;;;;;4.97;4.47;;;;;;;;;;472324;29;1360;-82
2024/03/28 00:41:48;;;;;;;5.32;4.65;;;;;;;;;;474654;29;1434;-82
2024/03/28 00:42:04;;;;;;;5.30;4.80;;;;;;;;;;476341;29;1257;-82
2024/03/28 00:42:23;;;;;;;5.38;4.88;;;;;;;;;;477776;28;1208;-82
2024/03/28 00:42:41;;;;;;;5.63;4.95;;;;;;;;;;477820;28;1302;-82
2024/03/28 00:42:59;;;;;;;5.18;4.68;;;;;;;;;;478682;28;1125;-82
2024/03/28 00:43:17;;;;;;;5.57;5.03;;;;;;;;;;477177;29;1205;-82
2024/03/28 00:43:36;;;;;;;5.30;4.80;;;;;;;;;;477567;29;1291;-80
2024/03/28 00:43:54;;;;;;;5.43;4.88;;;;;;;;;;476303;28;1290;-80
2024/03/28 00:44:13;;;;;;;5.65;5.05;;;;;;;;;;478760;28;1291;-80
2024/03/28 00:44:29;;;;;;;5.45;4.93;;;;;;;;;;478821;28;1287;-80
2024/03/28 00:44:46;;;;;;;5.70;5.00;;;;;;;;;;481264;28;1013;-79
2024/03/28 00:45:04;;;;;;;6.00;4.93;;;;;;;;;;475502;29;1249;-80
2024/03/28 00:45:23;;;;;;;5.72;4.70;;;;;;;;;;475782;29;1237;-79
2024/03/28 00:45:41;;;;;;;5.25;4.70;;;;;;;;;;475265;29;913;-80
2024/03/28 00:46:01;;;;;;;6.28;4.97;;;;;;;;;;475705;28;1284;-79
2024/03/28 00:46:19;;;;;;;5.55;4.80;;;;;;;;;;477150;28;1256;-79
2024/03/28 00:46:37;;;;;;;5.20;4.70;;;;;;;;;;476458;29;1199;-80
2024/03/28 00:47:01;;;;;;;5.25;4.63;;;;;;;;;;477836;28;1214;-79
2024/03/28 00:47:19;;;;;;;5.07;4.57;;;;;;;;;;476742;29;1396;-80
2024/03/28 00:47:36;;;;;;;5.00;4.50;;;;;;;;;;476604;29;1186;-79
2024/03/28 00:47:54;;;;;;;4.95;4.43;;;;;;;;;;476781;28;1430;-79
2024/03/28 00:48:12;;;;;;;5.05;4.55;;;;;;;;;;475663;29;1258;-80
2024/03/28 00:48:29;;;;;;;5.07;4.57;;;;;;;;;;475481;28;1260;-80
2024/03/28 00:48:45;;;;;;;5.00;4.50;;;;;;;;;;476850;29;1104;-80
2024/03/28 00:49:02;;;;;;;5.03;4.53;;;;;;;;;;474548;29;1082;-80
2024/03/28 00:49:20;;;;;;;5.00;4.50;;;;;;;;;;476589;29;1273;-80
2024/03/28 00:49:38;;;;;;;4.90;4.40;;;;;;;;;;474337;29;1332;-80
2024/03/28 00:49:57;;;;;;;5.18;4.60;;;;;;;;;;476043;28;1331;-80
2024/03/28 00:50:14;;;;;;;5.30;4.50;;;;;;;;;;476586;28;1212;-80
2024/03/28 00:50:32;;;;;;;5.18;4.55;;;;;;;;;;476205;28;1305;-80
2024/03/28 00:50:57;;;;;;;5.25;4.75;;;;;;;;;;477880;28;1403;-80
2024/03/28 00:51:16;;;;;;;5.10;4.60;;;;;;;;;;477252;28;1071;-80
2024/03/28 00:51:33;;;;;;;5.25;4.60;;;;;;;;;;476356;29;1258;-80
2024/03/28 00:51:55;;;;;;;5.10;4.60;;;;;;;;;;475011;29;1385;-80
2024/03/28 00:52:15;;;;;;;5.00;4.40;;;;;;;;;;476957;28;1201;-79
2024/03/28 00:52:31;;;;;;;4.78;4.35;;;;;;;;;;477701;28;1310;-79
2024/03/28 00:52:48;;;;;;;5.07;4.57;;;;;;;;;;479632;28;1243;-80
2024/03/28 00:53:08;;;;;;;5.50;4.90;;;;;;;;;;477072;28;1534;-80
2024/03/28 00:53:25;;;;;;;5.25;4.65;;;;;;;;;;479349;28;1812;-79
2024/03/28 00:53:46;;;;;;;4.80;4.40;;;;;;;;;;484955;28;934;-81
2024/03/28 00:54:02;;;;;;;5.20;4.63;;;;;;;;;;483135;28;1225;-81
2024/03/28 00:54:19;;;;;;;5.47;4.60;;;;;;;;;;478021;28;1234;-80
2024/03/28 00:54:37;;;;;;;5.22;4.72;;;;;;;;;;476552;28;1261;-79
2024/03/28 00:54:53;;;;;;;5.00;4.50;;;;;;;;;;476186;29;1141;-80
2024/03/28 00:55:10;;;;;;;4.55;4.15;;;;;;;;;;473164;29;1129;-80
2024/03/28 00:55:27;;;;;;;5.18;4.68;;;;;;;;;;475484;29;1382;-80
2024/03/28 00:55:45;;;;;;;6.05;5.10;;;;;;;;;;476093;29;1357;-80
2024/03/28 00:56:01;;;;;;;5.63;5.00;;;;;;;;;;474046;29;1163;-80
2024/03/28 00:56:18;;;;;;;5.40;4.90;;;;;;;;;;472907;29;1272;-80
2024/03/28 00:56:34;;;;;;;6.03;5.10;;;;;;;;;;472357;29;1072;-80
2024/03/28 00:56:51;;;;;;;5.82;4.88;;;;;;;;;;476077;29;1277;-80
2024/03/28 00:57:07;;;;;;;5.22;4.72;;;;;;;;;;474695;29;1181;-80
2024/03/28 00:57:24;;;;;;;5.28;4.78;;;;;;;;;;476091;29;1308;-80
2024/03/28 00:57:40;;;;;;;5.22;4.72;;;;;;;;;;476271;29;1161;-79
2024/03/28 00:57:56;;;;;;;5.20;4.70;;;;;;;;;;476572;29;926;-80
2024/03/28 00:58:14;;;;;;;5.07;4.63;;;;;;;;;;475413;29;1188;-80
2024/03/28 00:58:30;;;;;;;5.10;4.60;;;;;;;;;;476454;29;1293;-80
2024/03/28 00:58:47;;;;;;;5.20;4.70;;;;;;;;;;477110;29;1277;-80
2024/03/28 00:59:04;;;;;;;5.22;4.72;;;;;;;;;;475348;29;1163;-82
2024/03/28 00:59:20;;;;;;;5.40;4.90;;;;;;;;;;476545;28;1278;-80
2024/03/28 00:59:36;;;;;;;5.25;4.75;;;;;;;;;;478963;28;1425;-80
2024/03/28 00:59:53;;;;;;;5.28;4.70;;;;;;;;;;477822;28;1278;-80
2024/03/28 01:00:09;;;;;;;5.10;4.60;;;;;;;;;;478113;28;1272;-80
2024/03/28 01:00:25;;;;;;;5.25;4.75;;;;;;;;;;476497;29;1229;-79
2024/03/28 01:00:45;;;;;;;5.55;5.03;;;;;;;;;;478389;28;1268;-80
2024/03/28 01:01:03;;;;;;;5.57;4.97;;;;;;;;;;476664;29;1958;-80
2024/03/28 01:01:19;;;;;;;5.30;4.80;;;;;;;;;;477044;28;1234;-83
2024/03/28 01:01:36;;;;;;;5.15;4.65;;;;;;;;;;476440;28;1131;-82
2024/03/28 01:01:51;;;;;;;5.10;4.60;;;;;;;;;;480392;28;1134;-82
2024/03/28 01:02:08;;;;;;;5.20;4.70;;;;;;;;;;477434;28;1311;-80
2024/03/28 01:02:24;;;;;;;5.45;4.80;;;;;;;;;;476780;29;1189;-80
2024/03/28 01:02:41;;;;;;;5.20;4.70;;;;;;;;;;472568;29;1336;-80
2024/03/28 01:02:57;;;;;;;4.97;4.47;;;;;;;;;;475522;29;1299;-80
2024/03/28 01:03:14;;;;;;;4.93;4.43;;;;;;;;;;476933;29;1245;-80
2024/03/28 01:03:31;;;;;;;5.20;4.70;;;;;;;;;;479712;28;1149;-80
2024/03/28 01:03:47;;;;;;;5.20;4.70;;;;;;;;;;477711;28;1105;-82
2024/03/28 01:04:03;;;;;;;5.50;4.93;;;;;;;;;;476803;29;1349;-83
2024/03/28 01:04:19;;;;;;;5.53;4.82;;;;;;;;;;478379;28;988;-80
2024/03/28 01:04:35;;;;;;;4.90;4.40;;;;;;;;;;479277;28;1405;-80
2024/03/28 01:04:52;;;;;;;5.20;4.70;;;;;;;;;;478843;28;1220;-80
2024/03/28 01:05:11;;;;;;;5.50;4.90;;;;;;;;;;478137;28;1322;-80
2024/03/28 01:05:27;;;;;;;5.60;4.90;;;;;;;;;;478735;28;1261;-80
2024/03/28 01:05:44;;;;;;;5.55;4.85;;;;;;;;;;481900;28;1124;-80
2024/03/28 01:06:00;;;;;;;5.43;4.90;;;;;;;;;;480071;28;1300;-80
2024/03/28 01:06:16;;;;;;;5.40;4.90;;;;;;;;;;479811;28;946;-82
2024/03/28 01:06:32;;;;;;;5.18;4.68;;;;;;;;;;481300;28;1442;-82
2024/03/28 01:06:48;;;;;;;5.30;4.57;;;;;;;;;;480062;28;1126;-82
2024/03/28 01:07:04;;;;;;;5.28;4.70;;;;;;;;;;480257;28;1419;-83
2024/03/28 01:07:20;;;;;;;5.30;4.70;;;;;;;;;;479584;28;1342;-80
2024/03/28 01:07:36;;;;;;;5.35;4.85;;;;;;;;;;479055;28;1172;-80
2024/03/28 01:07:53;;;;;;;5.28;4.57;;;;;;;;;;479582;28;1296;-80
2024/03/28 01:08:09;;;;;;;5.22;4.40;;;;;;;;;;480589;28;1385;-80
2024/03/28 01:08:25;;;;;;;5.15;4.65;;;;;;;;;;479502;28;999;-80
2024/03/28 01:08:41;;;;;;;5.40;4.90;;;;;;;;;;479468;28;1316;-82
2024/03/28 01:08:58;;;;;;;5.20;4.70;;;;;;;;;;479587;28;1289;-82
2024/03/28 01:09:14;;;;;;;5.20;4.70;;;;;;;;;;481083;28;1308;-83
2024/03/28 01:09:31;;;;;;;5.13;4.63;;;;;;;;;;480445;28;1076;-82
2024/03/28 01:09:47;;;;;;;5.03;4.53;;;;;;;;;;479366;28;1263;-82
2024/03/28 01:10:03;;;;;;;4.95;4.47;;;;;;;;;;478934;28;1178;-81
2024/03/28 01:10:19;;;;;;;5.75;4.82;;;;;;;;;;479221;28;1056;-80
2024/03/28 01:10:36;;;;;;;5.63;4.70;;;;;;;;;;479824;28;1110;-80
2024/03/28 01:10:52;;;;;;;4.85;4.35;;;;;;;;;;479487;28;1022;-80
2024/03/28 01:11:08;;;;;;;5.00;4.50;;;;;;;;;;481971;28;1001;-80
2024/03/28 01:11:25;;;;;;;5.03;4.47;;;;;;;;;;480113;28;1302;-82
2024/03/28 01:11:40;;;;;;;5.00;4.50;;;;;;;;;;482415;28;1113;-82
2024/03/28 01:11:56;;;;;;;4.70;4.30;;;;;;;;;;482129;28;1385;-82
2024/03/28 01:12:12;;;;;;;4.55;4.15;;;;;;;;;;482227;28;1188;-82
2024/03/28 01:12:29;;;;;;;4.50;4.10;;;;;;;;;;480496;28;1221;-82
2024/03/28 01:12:45;;;;;;;5.20;4.28;;;;;;;;;;480434;28;1036;-82
2024/03/28 01:13:02;;;;;;;6.20;4.63;;;;;;;;;;479905;28;1144;-82
2024/03/28 01:13:18;;;;;;;5.30;4.40;;;;;;;;;;479336;28;1221;-82
2024/03/28 01:13:34;;;;;;;4.65;4.20;;;;;;;;;;477069;28;1200;-82
2024/03/28 01:13:50;;;;;;;4.72;4.22;;;;;;;;;;476505;28;1249;-80
2024/03/28 01:14:06;;;;;;;4.90;4.40;;;;;;;;;;478529;28;1098;-82
2024/03/28 01:14:25;;;;;;;4.90;4.40;;;;;;;;;;477725;28;1093;-82
2024/03/28 01:14:41;;;;;;;4.82;4.32;;;;;;;;;;476846;29;1147;-82
2024/03/28 01:14:57;;;;;;;5.00;4.50;;;;;;;;;;475983;29;1311;-82
2024/03/28 01:15:14;;;;;;;5.25;4.57;;;;;;;;;;479827;28;1250;-82
2024/03/28 01:15:30;;;;;;;5.05;4.40;;;;;;;;;;478537;28;1128;-82
2024/03/28 01:15:46;;;;;;;5.13;4.40;;;;;;;;;;479151;28;1313;-82
2024/03/28 01:16:02;;;;;;;4.93;4.43;;;;;;;;;;479175;28;1123;-81
2024/03/28 01:16:18;;;;;;;4.82;4.32;;;;;;;;;;477953;28;1406;-82
2024/03/28 01:16:34;;;;;;;4.57;4.18;;;;;;;;;;475482;29;1246;-82
2024/03/28 01:16:50;;;;;;;4.75;4.25;;;;;;;;;;477528;29;1175;-82
2024/03/28 01:17:06;;;;;;;5.25;4.30;;;;;;;;;;478419;28;1340;-81
2024/03/28 01:17:22;;;;;;;4.75;4.10;;;;;;;;;;478348;28;1054;-82
2024/03/28 01:17:38;;;;;;;4.50;4.10;;;;;;;;;;477967;28;1266;-82
2024/03/28 01:17:54;;;;;;;4.80;4.30;;;;;;;;;;478615;28;1019;-82
2024/03/28 01:18:11;;;;;;;4.30;3.90;;;;;;;;;;478117;28;1404;-81
2024/03/28 01:18:27;;;;;;;4.10;3.70;;;;;;;;;;476890;28;1300;-82
2024/03/28 01:18:43;;;;;;;4.28;3.88;;;;;;;;;;476617;29;1441;-82
2024/03/28 01:18:59;;;;;;;4.15;3.75;;;;;;;;;;476610;29;1028;-81
2024/03/28 01:19:15;;;;;;;4.13;3.72;;;;;;;;;;474321;29;1713;-82
2024/03/28 01:19:33;;;;;;;4.63;3.95;;;;;;;;;;475198;29;1209;-82
2024/03/28 01:19:50;;;;;;;4.80;3.97;;;;;;;;;;474033;29;1248;-82
2024/03/28 01:20:09;;;;;;;4.20;3.80;;;;;;;;;;474415;29;1292;-82
2024/03/28 01:20:25;;;;;;;4.78;3.85;;;;;;;;;;474241;28;1276;-82
2024/03/28 01:20:41;;;;;;;5.43;3.88;;;;;;;;;;474416;29;1389;-82
2024/03/28 01:21:02;;;;;;;4.55;3.92;;;;;;;;;;473840;29;1942;-82
2024/03/28 01:21:18;;;;;;;4.13;3.72;;;;;;;;;;475955;28;1208;-81
2024/03/28 01:21:34;;;;;;;4.40;3.70;;;;;;;;;;476301;29;1272;-82
2024/03/28 01:21:50;;;;;;;4.77;3.90;;;;;;;;;;477462;28;1250;-82
2024/03/28 01:22:06;;;;;;;4.47;3.90;;;;;;;;;;478460;28;1090;-82
2024/03/28 01:22:21;;;;;;;4.30;3.75;;;;;;;;;;477321;28;1308;-81
2024/03/28 01:22:39;;;;;;;4.50;3.80;;;;;;;;;;478915;28;1291;-82
2024/03/28 01:22:54;;;;;;;4.38;3.80;;;;;;;;;;479087;28;1126;-81
2024/03/28 01:23:10;;;;;;;4.38;3.58;;;;;;;;;;478773;28;1453;-82
2024/03/28 01:23:27;;;;;;;5.35;3.60;;;;;;;;;;480505;28;1548;-82
2024/03/28 01:23:43;;;;;;;4.78;3.60;;;;;;;;;;479951;28;945;-82
2024/03/28 01:23:59;;;;;;;4.05;3.65;;;;;;;;;;479251;28;1008;-82
2024/03/28 01:24:15;;;;;;;4.10;3.70;;;;;;;;;;480428;28;1271;-82
2024/03/28 01:24:31;;;;;;;4.50;3.70;;;;;;;;;;480039;28;1444;-82
2024/03/28 01:24:47;;;;;;;4.70;3.70;;;;;;;;;;479984;28;974;-82
2024/03/28 01:25:09;;;;;;;4.03;3.63;;;;;;;;;;480385;28;1417;-82
2024/03/28 01:25:25;;;;;;;4.10;3.70;;;;;;;;;;481788;28;1113;-81
2024/03/28 01:25:41;;;;;;;4.60;4.13;;;;;;;;;;481234;28;1037;-82
2024/03/28 01:26:01;;;;;;;6.07;5.20;;;;;;;;;;482324;28;1040;-82
2024/03/28 01:26:17;;;;;;;6.60;5.55;;;;;;;;;;479430;28;1133;-82
2024/03/28 01:26:33;;;;;;;5.53;4.73;;;;;;;;;;481632;28;1112;-86
2024/03/28 01:26:49;;;;;;;5.63;4.57;;;;;;;;;;479799;28;1125;-83
2024/03/28 01:27:05;;;;;;;6.15;4.97;;;;;;;;;;478497;28;1241;-81
2024/03/28 01:27:21;;;;;;;7.17;5.23;;;;;;;;;;476953;28;1308;-82
2024/03/28 01:27:38;;;;;;;7.10;5.15;;;;;;;;;;476914;28;975;-82
2024/03/28 01:27:54;;;;;;;5.90;4.90;;;;;;;;;;476334;28;1284;-82
2024/03/28 01:28:10;;;;;;;6.72;5.45;;;;;;;;;;477797;28;1420;-82
2024/03/28 01:28:26;;;;;;;7.90;6.32;;;;;;;;;;476596;29;1214;-81
2024/03/28 01:28:52;;;;;;;9.52;7.85;;;;;;;;;;475125;28;1125;-82
2024/03/28 01:29:08;;;;;;;10.32;8.05;;;;;;;;;;477818;28;1248;-82
2024/03/28 01:29:24;;;;;;;9.13;7.53;;;;;;;;;;479064;28;1395;-82
2024/03/28 01:29:40;;;;;;;8.65;7.20;;;;;;;;;;480490;28;1103;-82
2024/03/28 01:29:56;;;;;;;8.60;7.20;;;;;;;;;;476413;29;1303;-82
2024/03/28 01:30:12;;;;;;;8.38;7.20;;;;;;;;;;475358;29;981;-82
2024/03/28 01:30:27;;;;;;;7.65;6.72;;;;;;;;;;474532;29;1190;-82
2024/03/28 01:30:43;;;;;;;7.38;6.57;;;;;;;;;;477924;28;1407;-80
2024/03/28 01:31:01;;;;;;;7.63;6.78;;;;;;;;;;476012;29;1116;-80
2024/03/28 01:31:17;;;;;;;7.72;6.70;;;;;;;;;;475504;29;1348;-81
2024/03/28 01:31:33;;;;;;;8.13;6.87;;;;;;;;;;478418;28;1141;-80
2024/03/28 01:31:48;;;;;;;7.60;6.43;;;;;;;;;;475778;29;1297;-82
2024/03/28 01:32:04;;;;;;;7.20;6.03;;;;;;;;;;477731;28;1146;-82
2024/03/28 01:32:20;;;;;;;8.80;6.43;;;;;;;;;;477851;28;1481;-82
2024/03/28 01:32:36;;;;;;;8.20;6.10;;;;;;;;;;479137;28;1154;-82
2024/03/28 01:32:52;;;;;;;6.90;5.70;;;;;;;;;;480392;28;913;-82
2024/03/28 01:33:07;;;;;;;6.97;5.60;;;;;;;;;;479946;28;1259;-84
2024/03/28 01:33:23;;;;;;;6.70;5.50;;;;;;;;;;478499;28;1183;-82
2024/03/28 01:33:39;;;;;;;6.88;5.57;;;;;;;;;;480150;28;1063;-82
2024/03/28 01:33:55;;;;;;;6.90;5.57;;;;;;;;;;480654;28;1125;-82
2024/03/28 01:34:11;;;;;;;6.07;5.30;;;;;;;;;;480360;28;974;-82
2024/03/28 01:34:27;;;;;;;5.90;5.30;;;;;;;;;;479677;28;1082;-82
2024/03/28 01:34:43;;;;;;;5.90;5.30;;;;;;;;;;478755;28;1039;-82
2024/03/28 01:34:58;;;;;;;5.67;5.00;;;;;;;;;;477187;28;1527;-82
2024/03/28 01:35:14;;;;;;;5.68;4.60;;;;;;;;;;478645;28;1296;-82
2024/03/28 01:35:30;;;;;;;5.78;4.60;;;;;;;;;;478578;28;1335;-83
2024/03/28 01:35:46;;;;;;;5.53;4.75;;;;;;;;;;479642;28;1292;-82
2024/03/28 01:36:02;;;;;;;5.43;4.80;;;;;;;;;;477175;28;1378;-82
2024/03/28 01:36:18;;;;;;;5.68;4.78;;;;;;;;;;477833;28;1157;-82
2024/03/28 01:36:35;;;;;;;4.85;4.05;;;;;;;;;;477779;28;1045;-82
2024/03/28 01:36:50;;;;;;;4.85;3.75;;;;;;;;;;477172;28;1342;-82
2024/03/28 01:37:06;;;;;;;5.00;3.80;;;;;;;;;;476786;28;1093;-80
2024/03/28 01:37:22;;;;;;;4.10;3.65;;;;;;;;;;477316;28;961;-80
2024/03/28 01:37:37;;;;;;;4.43;3.80;;;;;;;;;;478861;28;1215;-81
2024/03/28 01:37:53;;;;;;;4.60;3.70;;;;;;;;;;478363;28;1395;-83
2024/03/28 01:38:09;;;;;;;4.85;3.80;;;;;;;;;;479976;28;1446;-82
2024/03/28 01:38:25;;;;;;;4.97;3.83;;;;;;;;;;478239;28;1339;-82
2024/03/28 01:38:41;;;;;;;4.83;3.60;;;;;;;;;;478887;28;1311;-82
2024/03/28 01:38:56;;;;;;;4.45;3.60;;;;;;;;;;477801;28;1264;-82
2024/03/28 01:39:12;;;;;;;4.10;3.70;;;;;;;;;;477754;28;1198;-82
2024/03/28 01:39:28;;;;;;;4.25;3.85;;;;;;;;;;478924;28;1240;-82
2024/03/28 01:39:43;;;;;;;4.27;3.77;;;;;;;;;;477828;28;1086;-82
2024/03/28 01:40:00;;;;;;;4.25;3.70;;;;;;;;;;477190;28;1373;-82
2024/03/28 01:40:16;;;;;;;4.20;3.80;;;;;;;;;;475258;29;1432;-82
2024/03/28 01:40:34;;;;;;;4.10;3.70;;;;;;;;;;473728;29;1194;-82
2024/03/28 01:40:50;;;;;;;4.10;3.70;;;;;;;;;;474831;29;1253;-82
2024/03/28 01:41:06;;;;;;;3.88;3.58;;;;;;;;;;477086;29;1951;-82
2024/03/28 01:41:21;;;;;;;3.95;3.55;;;;;;;;;;475993;28;1055;-83
2024/03/28 01:41:37;;;;;;;4.07;3.60;;;;;;;;;;476668;28;994;-82
2024/03/28 01:41:53;;;;;;;4.30;3.60;;;;;;;;;;475928;29;1340;-82
2024/03/28 01:42:09;;;;;;;4.60;3.72;;;;;;;;;;473262;29;1289;-84
2024/03/28 01:42:24;;;;;;;5.00;3.50;;;;;;;;;;475096;28;1316;-82
2024/03/28 01:42:40;;;;;;;4.67;3.37;;;;;;;;;;478170;28;1220;-81
2024/03/28 01:43:05;;;;;;;4.50;3.60;;;;;;;;;;477627;28;1271;-82
2024/03/28 01:43:20;;;;;;;3.65;3.25;;;;;;;;;;478313;28;1069;-82
2024/03/28 01:43:39;;;;;;;4.10;3.57;;;;;;;;;;477767;28;1194;-82
2024/03/28 01:43:54;;;;;;;4.20;3.70;;;;;;;;;;477095;28;1113;-82
2024/03/28 01:44:10;;;;;;;4.07;3.67;;;;;;;;;;476318;28;1338;-80
2024/03/28 01:44:26;;;;;;;3.90;3.50;;;;;;;;;;473884;29;1328;-80
2024/03/28 01:44:42;;;;;;;3.78;3.42;;;;;;;;;;476536;29;1252;-80
2024/03/28 01:44:58;;;;;;;4.22;3.38;;;;;;;;;;475456;29;1271;-80
2024/03/28 01:45:19;;;;;;;4.57;3.47;;;;;;;;;;476525;29;1264;-80
2024/03/28 01:45:35;;;;;;;4.72;3.50;;;;;;;;;;475634;29;1170;-83
2024/03/28 01:45:50;;;;;;;4.18;3.38;;;;;;;;;;475746;29;986;-82
2024/03/28 01:46:07;;;;;;;3.60;3.30;;;;;;;;;;474289;29;1135;-82
2024/03/28 01:46:23;;;;;;;3.78;3.47;;;;;;;;;;473092;29;1372;-83
2024/03/28 01:46:40;;;;;;;3.60;3.30;;;;;;;;;;474195;29;1099;-82
2024/03/28 01:46:57;;;;;;;3.50;3.20;;;;;;;;;;473176;29;1430;-82
2024/03/28 01:47:14;;;;;;;3.90;3.50;;;;;;;;;;472580;29;1258;-80
2024/03/28 01:47:30;;;;;;;3.67;3.30;;;;;;;;;;475369;29;1187;-80
2024/03/28 01:47:46;;;;;;;3.45;3.15;;;;;;;;;;474382;29;1325;-80
2024/03/28 01:48:02;;;;;;;3.92;3.53;;;;;;;;;;474990;29;1207;-82
2024/03/28 01:48:19;;;;;;;4.15;3.50;;;;;;;;;;476833;28;1146;-82
2024/03/28 01:48:34;;;;;;;4.63;3.50;;;;;;;;;;478311;28;1122;-82
2024/03/28 01:48:51;;;;;;;4.22;3.50;;;;;;;;;;478946;28;1075;-82
2024/03/28 01:49:08;;;;;;;3.63;3.33;;;;;;;;;;477151;28;1364;-83
2024/03/28 01:49:26;;;;;;;3.85;3.38;;;;;;;;;;478828;28;1115;-82
2024/03/28 01:49:43;;;;;;;3.92;3.45;;;;;;;;;;479872;28;1397;-82
2024/03/28 01:50:00;;;;;;;3.80;3.42;;;;;;;;;;478010;28;1448;-82
2024/03/28 01:50:16;;;;;;;3.85;3.38;;;;;;;;;;477131;28;1326;-82
2024/03/28 01:50:33;;;;;;;3.97;3.40;;;;;;;;;;477428;28;1047;-82
2024/03/28 01:50:48;;;;;;;4.35;3.20;;;;;;;;;;478501;28;1327;-82
2024/03/28 01:51:04;;;;;;;3.95;3.10;;;;;;;;;;477893;28;1498;-82
2024/03/28 01:51:21;;;;;;;4.60;3.40;;;;;;;;;;477167;28;1334;-82
2024/03/28 01:51:37;;;;;;;4.72;3.42;;;;;;;;;;476486;29;1349;-81
2024/03/28 01:51:55;;;;;;;4.05;3.33;;;;;;;;;;476272;28;1045;-82
2024/03/28 01:52:12;;;;;;;3.92;3.33;;;;;;;;;;477129;28;1246;-82
2024/03/28 01:52:28;;;;;;;3.60;3.30;;;;;;;;;;478168;28;1354;-82
2024/03/28 01:52:43;;;;;;;3.60;3.30;;;;;;;;;;477358;28;1309;-81
2024/03/28 01:53:00;;;;;;;3.53;3.22;;;;;;;;;;477170;28;1325;-81